sensor_id;sensor_type;location;lat;lon;timestamp;temperature;humidity
19898;DHT22;10111;50.814;4.572;2023-08-31T00:01:41;13.50;99.90
19898;DHT22;10111;50.814;4.572;2023-08-31T00:04:06;13.50;99.90
19898;DHT22;10111;50.814;4.572;2023-08-31T00:06:42;13.50;99.90
19898;DHT22;10111;50.814;4.572;2023-08-31T00:09:10;13.50;99.90
19898;DHT22;10111;50.814;4.572;2023-08-31T00:11:36;13.50;99.90
19898;DHT22;10111;50.814;4.572;2023-08-31T00:14:02;13.50;99.90
19898;DHT22;10111;50.814;4.572;2023-08-31T00:16:28;13.50;99.90
19898;DHT22;10111;50.814;4.572;2023-08-31T00:18:56;13.50;99.90
19898;DHT22;10111;50.814;4.572;2023-08-31T00:21:22;13.50;99.90
19898;DHT22;10111;50.814;4.572;2023-08-31T00:23:47;13.60;99.90
19898;DHT22;10111;50.814;4.572;2023-08-31T00:26:14;13.50;99.90
19898;DHT22;10111;50.814;4.572;2023-08-31T00:28:40;13.60;99.90
19898;DHT22;10111;50.814;4.572;2023-08-31T00:31:08;13.60;99.90
19898;DHT22;10111;50.814;4.572;2023-08-31T00:33:34;13.60;99.90
19898;DHT22;10111;50.814;4.572;2023-08-31T00:36:00;13.70;99.90
19898;DHT22;10111;50.814;4.572;2023-08-31T00:38:32;13.60;99.90
19898;DHT22;10111;50.814;4.572;2023-08-31T00:40:58;13.60;99.90
19898;DHT22;10111;50.814;4.572;2023-08-31T00:43:24;13.60;99.90
19898;DHT22;10111;50.814;4.572;2023-08-31T00:45:51;13.60;99.90
19898;DHT22;10111;50.814;4.572;2023-08-31T00:48:19;13.60;99.90
19898;DHT22;10111;50.814;4.572;2023-08-31T00:50:46;13.60;99.90
19898;DHT22;10111;50.814;4.572;2023-08-31T00:53:12;13.60;99.90
19898;DHT22;10111;50.814;4.572;2023-08-31T00:55:39;13.70;99.90
19898;DHT22;10111;50.814;4.572;2023-08-31T00:58:06;13.70;99.90
19898;DHT22;10111;50.814;4.572;2023-08-31T01:03:50;13.80;99.90
19898;DHT22;10111;50.814;4.572;2023-08-31T01:06:33;13.80;99.90
19898;DHT22;10111;50.814;4.572;2023-08-31T01:12:03;13.80;99.90
19898;DHT22;10111;50.814;4.572;2023-08-31T01:14:46;13.70;99.90
19898;DHT22;10111;50.814;4.572;2023-08-31T01:17:14;13.60;99.90
19898;DHT22;10111;50.814;4.572;2023-08-31T01:19:50;13.50;99.90
19898;DHT22;10111;50.814;4.572;2023-08-31T01:22:39;13.60;99.90
19898;DHT22;10111;50.814;4.572;2023-08-31T01:25:06;13.60;99.90
19898;DHT22;10111;50.814;4.572;2023-08-31T01:27:35;13.60;99.90
19898;DHT22;10111;50.814;4.572;2023-08-31T01:30:03;13.50;99.90
19898;DHT22;10111;50.814;4.572;2023-08-31T01:32:29;13.50;99.90
19898;DHT22;10111;50.814;4.572;2023-08-31T01:34:55;13.50;99.90
19898;DHT22;10111;50.814;4.572;2023-08-31T01:37:43;13.50;99.90
19898;DHT22;10111;50.814;4.572;2023-08-31T01:40:19;13.50;99.90
19898;DHT22;10111;50.814;4.572;2023-08-31T01:42:47;13.50;99.90
19898;DHT22;10111;50.814;4.572;2023-08-31T01:45:17;13.50;99.90
19898;DHT22;10111;50.814;4.572;2023-08-31T01:47:44;13.50;99.90
19898;DHT22;10111;50.814;4.572;2023-08-31T01:50:11;13.50;99.90
19898;DHT22;10111;50.814;4.572;2023-08-31T01:52:37;13.50;99.90
19898;DHT22;10111;50.814;4.572;2023-08-31T01:55:03;13.50;99.90
19898;DHT22;10111;50.814;4.572;2023-08-31T01:57:29;13.50;99.90
19898;DHT22;10111;50.814;4.572;2023-08-31T01:59:54;13.50;99.90
19898;DHT22;10111;50.814;4.572;2023-08-31T02:02:20;13.50;99.90
19898;DHT22;10111;50.814;4.572;2023-08-31T02:04:46;13.40;99.90
19898;DHT22;10111;50.814;4.572;2023-08-31T02:07:11;13.40;99.90
19898;DHT22;10111;50.814;4.572;2023-08-31T02:09:37;13.40;99.90
19898;DHT22;10111;50.814;4.572;2023-08-31T02:12:03;13.40;99.90
19898;DHT22;10111;50.814;4.572;2023-08-31T02:14:30;13.40;99.90
19898;DHT22;10111;50.814;4.572;2023-08-31T02:16:55;13.40;99.90
19898;DHT22;10111;50.814;4.572;2023-08-31T02:19:21;13.40;99.90
19898;DHT22;10111;50.814;4.572;2023-08-31T02:21:47;13.40;99.90
19898;DHT22;10111;50.814;4.572;2023-08-31T02:24:13;13.40;99.90
19898;DHT22;10111;50.814;4.572;2023-08-31T02:26:39;13.40;99.90
19898;DHT22;10111;50.814;4.572;2023-08-31T02:29:04;13.40;99.90
19898;DHT22;10111;50.814;4.572;2023-08-31T02:31:30;13.30;99.90
19898;DHT22;10111;50.814;4.572;2023-08-31T02:33:56;13.30;99.90
19898;DHT22;10111;50.814;4.572;2023-08-31T02:36:21;13.30;99.90
19898;DHT22;10111;50.814;4.572;2023-08-31T02:38:47;13.30;99.90
19898;DHT22;10111;50.814;4.572;2023-08-31T02:41:15;13.30;99.90
19898;DHT22;10111;50.814;4.572;2023-08-31T02:43:40;13.40;99.90
19898;DHT22;10111;50.814;4.572;2023-08-31T02:46:06;13.40;99.90
19898;DHT22;10111;50.814;4.572;2023-08-31T02:48:32;13.40;99.90
19898;DHT22;10111;50.814;4.572;2023-08-31T02:50:59;13.50;99.90
19898;DHT22;10111;50.814;4.572;2023-08-31T02:53:27;13.50;99.90
19898;DHT22;10111;50.814;4.572;2023-08-31T02:55:53;13.50;99.90
19898;DHT22;10111;50.814;4.572;2023-08-31T02:58:18;13.50;99.90
19898;DHT22;10111;50.814;4.572;2023-08-31T03:00:45;13.50;99.90
19898;DHT22;10111;50.814;4.572;2023-08-31T03:03:16;13.50;99.90
19898;DHT22;10111;50.814;4.572;2023-08-31T03:05:43;13.50;99.90
19898;DHT22;10111;50.814;4.572;2023-08-31T03:08:09;13.50;99.90
19898;DHT22;10111;50.814;4.572;2023-08-31T03:10:36;13.40;99.90
19898;DHT22;10111;50.814;4.572;2023-08-31T03:13:02;13.40;99.90
19898;DHT22;10111;50.814;4.572;2023-08-31T03:15:28;13.40;99.90
19898;DHT22;10111;50.814;4.572;2023-08-31T03:17:53;13.40;99.90
19898;DHT22;10111;50.814;4.572;2023-08-31T03:20:19;13.40;99.90
19898;DHT22;10111;50.814;4.572;2023-08-31T03:22:45;13.40;99.90
19898;DHT22;10111;50.814;4.572;2023-08-31T03:25:11;13.40;99.90
19898;DHT22;10111;50.814;4.572;2023-08-31T03:27:36;13.30;99.90
19898;DHT22;10111;50.814;4.572;2023-08-31T03:30:02;13.30;99.90
19898;DHT22;10111;50.814;4.572;2023-08-31T03:32:29;13.30;99.90
19898;DHT22;10111;50.814;4.572;2023-08-31T03:34:55;13.30;99.90
19898;DHT22;10111;50.814;4.572;2023-08-31T03:37:20;13.40;99.90
19898;DHT22;10111;50.814;4.572;2023-08-31T03:39:47;13.40;99.90
19898;DHT22;10111;50.814;4.572;2023-08-31T03:42:13;13.50;99.90
19898;DHT22;10111;50.814;4.572;2023-08-31T03:44:39;13.50;99.90
19898;DHT22;10111;50.814;4.572;2023-08-31T03:47:04;13.50;99.90
19898;DHT22;10111;50.814;4.572;2023-08-31T03:49:30;13.60;99.90
19898;DHT22;10111;50.814;4.572;2023-08-31T03:51:57;13.60;99.90
19898;DHT22;10111;50.814;4.572;2023-08-31T03:54:23;13.70;99.90
19898;DHT22;10111;50.814;4.572;2023-08-31T03:56:49;13.70;99.90
19898;DHT22;10111;50.814;4.572;2023-08-31T03:59:14;13.70;99.90
19898;DHT22;10111;50.814;4.572;2023-08-31T04:01:40;13.80;99.90
19898;DHT22;10111;50.814;4.572;2023-08-31T04:04:06;13.80;99.90
19898;DHT22;10111;50.814;4.572;2023-08-31T04:06:31;13.80;99.90
19898;DHT22;10111;50.814;4.572;2023-08-31T04:08:57;13.90;99.90
19898;DHT22;10111;50.814;4.572;2023-08-31T04:11:24;13.90;99.90
19898;DHT22;10111;50.814;4.572;2023-08-31T04:13:50;13.90;99.90
19898;DHT22;10111;50.814;4.572;2023-08-31T04:16:15;13.90;99.90
19898;DHT22;10111;50.814;4.572;2023-08-31T04:18:41;13.90;99.90
19898;DHT22;10111;50.814;4.572;2023-08-31T04:21:07;13.80;99.90
19898;DHT22;10111;50.814;4.572;2023-08-31T04:23:33;13.80;99.90
19898;DHT22;10111;50.814;4.572;2023-08-31T04:25:59;13.70;99.90
19898;DHT22;10111;50.814;4.572;2023-08-31T04:28:24;13.70;99.90
19898;DHT22;10111;50.814;4.572;2023-08-31T04:30:50;13.60;99.90
19898;DHT22;10111;50.814;4.572;2023-08-31T04:33:16;13.60;99.90
19898;DHT22;10111;50.814;4.572;2023-08-31T04:35:42;13.50;99.90
19898;DHT22;10111;50.814;4.572;2023-08-31T04:38:08;13.50;99.90
19898;DHT22;10111;50.814;4.572;2023-08-31T04:40:34;13.40;99.90
19898;DHT22;10111;50.814;4.572;2023-08-31T04:42:59;13.40;99.90
19898;DHT22;10111;50.814;4.572;2023-08-31T04:45:25;13.40;99.90
19898;DHT22;10111;50.814;4.572;2023-08-31T04:47:51;13.30;99.90
19898;DHT22;10111;50.814;4.572;2023-08-31T04:50:17;13.30;99.90
19898;DHT22;10111;50.814;4.572;2023-08-31T04:52:43;13.20;99.90
19898;DHT22;10111;50.814;4.572;2023-08-31T04:55:09;13.30;99.90
19898;DHT22;10111;50.814;4.572;2023-08-31T04:57:36;13.30;99.90
19898;DHT22;10111;50.814;4.572;2023-08-31T05:00:02;13.20;99.90
19898;DHT22;10111;50.814;4.572;2023-08-31T05:02:28;13.20;99.90
19898;DHT22;10111;50.814;4.572;2023-08-31T05:04:54;13.30;99.90
19898;DHT22;10111;50.814;4.572;2023-08-31T05:07:20;13.30;99.90
19898;DHT22;10111;50.814;4.572;2023-08-31T05:09:45;13.30;99.90
19898;DHT22;10111;50.814;4.572;2023-08-31T05:12:11;13.20;99.90
19898;DHT22;10111;50.814;4.572;2023-08-31T05:14:37;13.20;99.90
19898;DHT22;10111;50.814;4.572;2023-08-31T05:17:04;13.30;99.90
19898;DHT22;10111;50.814;4.572;2023-08-31T05:19:30;13.20;99.90
19898;DHT22;10111;50.814;4.572;2023-08-31T05:21:56;13.30;99.90
19898;DHT22;10111;50.814;4.572;2023-08-31T05:24:22;13.30;99.90
19898;DHT22;10111;50.814;4.572;2023-08-31T05:26:48;13.40;99.90
19898;DHT22;10111;50.814;4.572;2023-08-31T05:29:14;13.40;99.90
19898;DHT22;10111;50.814;4.572;2023-08-31T05:31:40;13.50;99.90
19898;DHT22;10111;50.814;4.572;2023-08-31T05:34:05;13.50;99.90
19898;DHT22;10111;50.814;4.572;2023-08-31T05:36:31;13.50;99.90
19898;DHT22;10111;50.814;4.572;2023-08-31T05:38:56;13.60;99.90
19898;DHT22;10111;50.814;4.572;2023-08-31T05:41:22;13.50;99.90
19898;DHT22;10111;50.814;4.572;2023-08-31T05:43:48;13.60;99.90
19898;DHT22;10111;50.814;4.572;2023-08-31T05:46:14;13.70;99.90
19898;DHT22;10111;50.814;4.572;2023-08-31T05:48:39;13.80;99.90
19898;DHT22;10111;50.814;4.572;2023-08-31T05:51:05;13.80;99.90
19898;DHT22;10111;50.814;4.572;2023-08-31T05:53:31;13.90;99.90
19898;DHT22;10111;50.814;4.572;2023-08-31T05:55:57;13.90;99.90
19898;DHT22;10111;50.814;4.572;2023-08-31T05:58:33;14.00;99.90
19898;DHT22;10111;50.814;4.572;2023-08-31T06:01:00;14.00;99.90
19898;DHT22;10111;50.814;4.572;2023-08-31T06:03:26;14.00;99.90
19898;DHT22;10111;50.814;4.572;2023-08-31T06:05:52;14.10;99.90
19898;DHT22;10111;50.814;4.572;2023-08-31T06:08:17;14.30;99.90
19898;DHT22;10111;50.814;4.572;2023-08-31T06:10:43;14.30;99.90
19898;DHT22;10111;50.814;4.572;2023-08-31T06:13:09;14.40;99.90
19898;DHT22;10111;50.814;4.572;2023-08-31T06:15:34;14.50;99.90
19898;DHT22;10111;50.814;4.572;2023-08-31T06:18:00;14.60;99.90
19898;DHT22;10111;50.814;4.572;2023-08-31T06:20:25;14.60;99.90
19898;DHT22;10111;50.814;4.572;2023-08-31T06:22:51;14.70;99.90
19898;DHT22;10111;50.814;4.572;2023-08-31T06:25:17;14.80;99.90
19898;DHT22;10111;50.814;4.572;2023-08-31T06:27:44;14.80;99.90
19898;DHT22;10111;50.814;4.572;2023-08-31T06:30:11;14.90;99.90
19898;DHT22;10111;50.814;4.572;2023-08-31T06:32:47;14.90;99.90
19898;DHT22;10111;50.814;4.572;2023-08-31T06:35:13;14.90;99.90
19898;DHT22;10111;50.814;4.572;2023-08-31T06:37:41;15.10;99.90
19898;DHT22;10111;50.814;4.572;2023-08-31T06:40:07;15.00;99.90
19898;DHT22;10111;50.814;4.572;2023-08-31T06:42:37;15.10;99.90
19898;DHT22;10111;50.814;4.572;2023-08-31T06:45:07;15.10;99.90
19898;DHT22;10111;50.814;4.572;2023-08-31T06:47:33;15.20;99.90
19898;DHT22;10111;50.814;4.572;2023-08-31T06:49:59;15.30;99.90
19898;DHT22;10111;50.814;4.572;2023-08-31T06:52:27;15.30;99.90
19898;DHT22;10111;50.814;4.572;2023-08-31T06:54:53;15.50;99.90
19898;DHT22;10111;50.814;4.572;2023-08-31T06:57:23;15.40;99.90
19898;DHT22;10111;50.814;4.572;2023-08-31T06:59:49;15.50;99.90
19898;DHT22;10111;50.814;4.572;2023-08-31T07:02:15;15.70;99.90
19898;DHT22;10111;50.814;4.572;2023-08-31T07:04:40;15.80;99.90
19898;DHT22;10111;50.814;4.572;2023-08-31T07:07:06;15.90;99.90
19898;DHT22;10111;50.814;4.572;2023-08-31T07:09:34;16.00;99.90
19898;DHT22;10111;50.814;4.572;2023-08-31T07:12:00;16.00;99.90
19898;DHT22;10111;50.814;4.572;2023-08-31T07:14:27;16.10;99.90
19898;DHT22;10111;50.814;4.572;2023-08-31T07:16:52;16.20;99.90
19898;DHT22;10111;50.814;4.572;2023-08-31T07:19:18;16.30;99.90
19898;DHT22;10111;50.814;4.572;2023-08-31T07:21:44;16.40;99.90
19898;DHT22;10111;50.814;4.572;2023-08-31T07:24:09;16.50;99.90
19898;DHT22;10111;50.814;4.572;2023-08-31T07:26:35;16.60;99.90
19898;DHT22;10111;50.814;4.572;2023-08-31T07:29:01;16.80;99.90
19898;DHT22;10111;50.814;4.572;2023-08-31T07:31:30;16.80;99.90
19898;DHT22;10111;50.814;4.572;2023-08-31T07:33:56;17.00;99.90
19898;DHT22;10111;50.814;4.572;2023-08-31T07:36:22;17.10;99.90
19898;DHT22;10111;50.814;4.572;2023-08-31T07:38:48;17.10;99.90
19898;DHT22;10111;50.814;4.572;2023-08-31T07:41:13;17.20;99.90
19898;DHT22;10111;50.814;4.572;2023-08-31T07:43:39;17.30;99.90
19898;DHT22;10111;50.814;4.572;2023-08-31T07:46:05;17.50;99.90
19898;DHT22;10111;50.814;4.572;2023-08-31T07:48:30;17.60;99.90
19898;DHT22;10111;50.814;4.572;2023-08-31T07:50:56;17.80;99.90
19898;DHT22;10111;50.814;4.572;2023-08-31T07:53:22;18.00;99.90
19898;DHT22;10111;50.814;4.572;2023-08-31T07:55:54;18.10;99.90
19898;DHT22;10111;50.814;4.572;2023-08-31T07:58:22;18.10;99.90
19898;DHT22;10111;50.814;4.572;2023-08-31T08:00:48;18.20;99.90
19898;DHT22;10111;50.814;4.572;2023-08-31T08:03:14;18.20;99.90
19898;DHT22;10111;50.814;4.572;2023-08-31T08:05:39;18.30;99.90
19898;DHT22;10111;50.814;4.572;2023-08-31T08:08:06;18.40;99.90
19898;DHT22;10111;50.814;4.572;2023-08-31T08:10:32;18.40;99.90
19898;DHT22;10111;50.814;4.572;2023-08-31T08:12:58;18.40;99.90
19898;DHT22;10111;50.814;4.572;2023-08-31T08:15:24;18.60;99.90
19898;DHT22;10111;50.814;4.572;2023-08-31T08:17:51;18.70;99.90
19898;DHT22;10111;50.814;4.572;2023-08-31T08:20:19;18.90;99.90
19898;DHT22;10111;50.814;4.572;2023-08-31T08:22:44;19.00;99.90
19898;DHT22;10111;50.814;4.572;2023-08-31T08:25:11;19.00;99.90
19898;DHT22;10111;50.814;4.572;2023-08-31T08:27:37;19.10;99.90
19898;DHT22;10111;50.814;4.572;2023-08-31T08:30:03;19.10;99.90
19898;DHT22;10111;50.814;4.572;2023-08-31T08:32:29;19.10;99.90
19898;DHT22;10111;50.814;4.572;2023-08-31T08:34:54;19.10;99.90
19898;DHT22;10111;50.814;4.572;2023-08-31T08:37:20;19.10;99.90
19898;DHT22;10111;50.814;4.572;2023-08-31T08:39:49;19.10;99.90
19898;DHT22;10111;50.814;4.572;2023-08-31T08:42:18;19.10;99.90
19898;DHT22;10111;50.814;4.572;2023-08-31T08:44:44;19.00;99.90
19898;DHT22;10111;50.814;4.572;2023-08-31T08:47:12;19.20;99.90
19898;DHT22;10111;50.814;4.572;2023-08-31T08:49:37;19.50;99.90
19898;DHT22;10111;50.814;4.572;2023-08-31T08:52:04;19.70;99.90
19898;DHT22;10111;50.814;4.572;2023-08-31T08:54:30;19.90;99.90
19898;DHT22;10111;50.814;4.572;2023-08-31T08:56:56;19.90;99.90
19898;DHT22;10111;50.814;4.572;2023-08-31T08:59:22;20.10;99.90
19898;DHT22;10111;50.814;4.572;2023-08-31T09:01:48;20.20;99.90
19898;DHT22;10111;50.814;4.572;2023-08-31T09:04:14;20.10;99.90
19898;DHT22;10111;50.814;4.572;2023-08-31T09:06:40;20.20;99.90
19898;DHT22;10111;50.814;4.572;2023-08-31T09:09:09;20.40;99.90
19898;DHT22;10111;50.814;4.572;2023-08-31T09:11:35;20.40;99.90
19898;DHT22;10111;50.814;4.572;2023-08-31T09:14:14;20.30;99.90
19898;DHT22;10111;50.814;4.572;2023-08-31T09:16:44;20.20;99.90
19898;DHT22;10111;50.814;4.572;2023-08-31T09:19:24;20.30;99.90
19898;DHT22;10111;50.814;4.572;2023-08-31T09:21:51;20.40;99.90
19898;DHT22;10111;50.814;4.572;2023-08-31T09:24:17;20.60;99.90
19898;DHT22;10111;50.814;4.572;2023-08-31T09:26:57;20.70;99.90
19898;DHT22;10111;50.814;4.572;2023-08-31T09:29:24;20.70;99.90
19898;DHT22;10111;50.814;4.572;2023-08-31T09:31:49;20.90;99.90
19898;DHT22;10111;50.814;4.572;2023-08-31T09:34:15;20.80;99.90
19898;DHT22;10111;50.814;4.572;2023-08-31T09:36:42;20.90;99.90
19898;DHT22;10111;50.814;4.572;2023-08-31T09:39:08;20.90;99.90
19898;DHT22;10111;50.814;4.572;2023-08-31T09:41:35;20.90;99.90
19898;DHT22;10111;50.814;4.572;2023-08-31T09:44:15;20.90;99.90
19898;DHT22;10111;50.814;4.572;2023-08-31T09:46:43;20.90;99.90
19898;DHT22;10111;50.814;4.572;2023-08-31T09:49:09;21.00;99.90
19898;DHT22;10111;50.814;4.572;2023-08-31T09:51:38;21.00;99.90
19898;DHT22;10111;50.814;4.572;2023-08-31T09:54:05;21.00;99.90
19898;DHT22;10111;50.814;4.572;2023-08-31T09:56:33;21.20;99.90
19898;DHT22;10111;50.814;4.572;2023-08-31T09:59:00;21.00;99.90
19898;DHT22;10111;50.814;4.572;2023-08-31T10:01:26;21.00;99.90
19898;DHT22;10111;50.814;4.572;2023-08-31T10:03:52;21.10;99.90
19898;DHT22;10111;50.814;4.572;2023-08-31T10:06:18;21.20;99.90
19898;DHT22;10111;50.814;4.572;2023-08-31T10:08:45;21.30;99.90
19898;DHT22;10111;50.814;4.572;2023-08-31T10:11:11;21.20;99.90
19898;DHT22;10111;50.814;4.572;2023-08-31T10:13:40;21.30;99.90
19898;DHT22;10111;50.814;4.572;2023-08-31T10:16:07;21.50;99.90
19898;DHT22;10111;50.814;4.572;2023-08-31T10:18:34;21.50;99.90
19898;DHT22;10111;50.814;4.572;2023-08-31T10:21:02;21.60;99.90
19898;DHT22;10111;50.814;4.572;2023-08-31T10:23:28;21.60;99.90
19898;DHT22;10111;50.814;4.572;2023-08-31T10:28:27;21.60;99.90
19898;DHT22;10111;50.814;4.572;2023-08-31T10:31:15;21.70;99.90
19898;DHT22;10111;50.814;4.572;2023-08-31T10:33:47;21.90;99.90
19898;DHT22;10111;50.814;4.572;2023-08-31T10:36:17;22.10;99.90
19898;DHT22;10111;50.814;4.572;2023-08-31T10:41:39;21.90;99.90
19898;DHT22;10111;50.814;4.572;2023-08-31T10:44:18;21.70;99.90
19898;DHT22;10111;50.814;4.572;2023-08-31T10:46:45;21.90;99.90
19898;DHT22;10111;50.814;4.572;2023-08-31T10:51:41;21.80;99.90
19898;DHT22;10111;50.814;4.572;2023-08-31T10:54:09;21.70;99.90
19898;DHT22;10111;50.814;4.572;2023-08-31T10:57:04;21.70;99.90
19898;DHT22;10111;50.814;4.572;2023-08-31T10:59:48;21.70;99.90
19898;DHT22;10111;50.814;4.572;2023-08-31T11:07:38;21.70;99.90
19898;DHT22;10111;50.814;4.572;2023-08-31T11:10:21;21.70;99.90
19898;DHT22;10111;50.814;4.572;2023-08-31T11:12:50;21.70;99.90
19898;DHT22;10111;50.814;4.572;2023-08-31T11:15:18;21.70;99.90
19898;DHT22;10111;50.814;4.572;2023-08-31T11:17:44;21.90;99.90
19898;DHT22;10111;50.814;4.572;2023-08-31T11:20:14;21.90;99.90
19898;DHT22;10111;50.814;4.572;2023-08-31T11:22:51;21.70;99.90
19898;DHT22;10111;50.814;4.572;2023-08-31T11:25:18;21.50;99.90
19898;DHT22;10111;50.814;4.572;2023-08-31T11:27:58;21.70;99.90
19898;DHT22;10111;50.814;4.572;2023-08-31T11:30:29;22.00;99.90
19898;DHT22;10111;50.814;4.572;2023-08-31T11:33:08;22.10;99.90
19898;DHT22;10111;50.814;4.572;2023-08-31T11:35:39;22.10;99.90
19898;DHT22;10111;50.814;4.572;2023-08-31T11:38:08;22.10;99.90
19898;DHT22;10111;50.814;4.572;2023-08-31T11:40:34;22.00;99.90
19898;DHT22;10111;50.814;4.572;2023-08-31T11:43:00;21.90;99.90
19898;DHT22;10111;50.814;4.572;2023-08-31T11:45:26;21.80;99.90
19898;DHT22;10111;50.814;4.572;2023-08-31T11:47:53;21.80;99.90
19898;DHT22;10111;50.814;4.572;2023-08-31T11:50:19;22.00;99.90
19898;DHT22;10111;50.814;4.572;2023-08-31T11:52:45;22.10;99.90
19898;DHT22;10111;50.814;4.572;2023-08-31T11:55:15;22.20;99.90
19898;DHT22;10111;50.814;4.572;2023-08-31T11:57:51;22.40;99.90
19898;DHT22;10111;50.814;4.572;2023-08-31T12:00:18;22.70;99.90
19898;DHT22;10111;50.814;4.572;2023-08-31T12:02:45;22.80;99.90
19898;DHT22;10111;50.814;4.572;2023-08-31T12:05:14;22.80;99.90
19898;DHT22;10111;50.814;4.572;2023-08-31T12:07:40;22.80;99.90
19898;DHT22;10111;50.814;4.572;2023-08-31T12:10:09;22.90;99.90
19898;DHT22;10111;50.814;4.572;2023-08-31T12:12:35;23.10;99.90
19898;DHT22;10111;50.814;4.572;2023-08-31T12:15:02;23.10;99.90
19898;DHT22;10111;50.814;4.572;2023-08-31T12:17:31;22.90;99.90
19898;DHT22;10111;50.814;4.572;2023-08-31T12:20:03;22.80;99.90
19898;DHT22;10111;50.814;4.572;2023-08-31T12:22:32;22.60;99.90
19898;DHT22;10111;50.814;4.572;2023-08-31T12:24:58;22.60;99.90
19898;DHT22;10111;50.814;4.572;2023-08-31T12:27:24;22.50;99.90
19898;DHT22;10111;50.814;4.572;2023-08-31T12:29:49;22.30;99.90
19898;DHT22;10111;50.814;4.572;2023-08-31T12:32:16;22.20;99.90
19898;DHT22;10111;50.814;4.572;2023-08-31T12:34:44;22.00;99.90
19898;DHT22;10111;50.814;4.572;2023-08-31T12:37:10;21.90;99.90
19898;DHT22;10111;50.814;4.572;2023-08-31T12:39:36;21.80;99.90
19898;DHT22;10111;50.814;4.572;2023-08-31T12:42:03;21.80;99.90
19898;DHT22;10111;50.814;4.572;2023-08-31T12:44:28;22.00;99.90
19898;DHT22;10111;50.814;4.572;2023-08-31T12:46:54;22.10;99.90
19898;DHT22;10111;50.814;4.572;2023-08-31T12:49:20;22.30;99.90
19898;DHT22;10111;50.814;4.572;2023-08-31T12:51:46;22.40;99.90
19898;DHT22;10111;50.814;4.572;2023-08-31T12:54:12;22.40;99.90
19898;DHT22;10111;50.814;4.572;2023-08-31T12:56:37;22.40;99.90
19898;DHT22;10111;50.814;4.572;2023-08-31T12:59:03;22.30;99.90
19898;DHT22;10111;50.814;4.572;2023-08-31T13:01:31;22.30;99.90
19898;DHT22;10111;50.814;4.572;2023-08-31T13:03:58;22.30;99.90
19898;DHT22;10111;50.814;4.572;2023-08-31T13:06:24;22.40;99.90
19898;DHT22;10111;50.814;4.572;2023-08-31T13:08:51;22.40;99.90
19898;DHT22;10111;50.814;4.572;2023-08-31T13:11:17;22.40;99.90
19898;DHT22;10111;50.814;4.572;2023-08-31T13:13:49;22.50;99.90
19898;DHT22;10111;50.814;4.572;2023-08-31T13:16:14;22.60;99.90
19898;DHT22;10111;50.814;4.572;2023-08-31T13:18:40;22.50;99.90
19898;DHT22;10111;50.814;4.572;2023-08-31T13:21:05;22.50;99.90
19898;DHT22;10111;50.814;4.572;2023-08-31T13:23:31;22.50;99.90
19898;DHT22;10111;50.814;4.572;2023-08-31T13:25:57;22.40;99.90
19898;DHT22;10111;50.814;4.572;2023-08-31T13:28:22;22.40;99.90
19898;DHT22;10111;50.814;4.572;2023-08-31T13:30:48;22.30;99.90
19898;DHT22;10111;50.814;4.572;2023-08-31T13:33:14;22.40;99.90
19898;DHT22;10111;50.814;4.572;2023-08-31T13:35:40;22.40;99.90
19898;DHT22;10111;50.814;4.572;2023-08-31T13:38:06;22.30;99.90
19898;DHT22;10111;50.814;4.572;2023-08-31T13:40:34;22.30;99.90
19898;DHT22;10111;50.814;4.572;2023-08-31T13:43:00;22.40;99.90
19898;DHT22;10111;50.814;4.572;2023-08-31T13:45:29;22.50;99.90
19898;DHT22;10111;50.814;4.572;2023-08-31T13:47:56;22.60;99.90
19898;DHT22;10111;50.814;4.572;2023-08-31T13:50:22;22.60;99.90
19898;DHT22;10111;50.814;4.572;2023-08-31T13:52:48;22.70;99.90
19898;DHT22;10111;50.814;4.572;2023-08-31T13:55:14;22.70;99.90
19898;DHT22;10111;50.814;4.572;2023-08-31T13:57:42;22.70;99.90
19898;DHT22;10111;50.814;4.572;2023-08-31T14:00:09;22.60;99.90
19898;DHT22;10111;50.814;4.572;2023-08-31T14:02:35;22.60;99.90
19898;DHT22;10111;50.814;4.572;2023-08-31T14:05:02;22.50;99.90
19898;DHT22;10111;50.814;4.572;2023-08-31T14:07:28;22.50;99.90
19898;DHT22;10111;50.814;4.572;2023-08-31T14:09:54;22.50;99.90
19898;DHT22;10111;50.814;4.572;2023-08-31T14:12:19;22.40;99.90
19898;DHT22;10111;50.814;4.572;2023-08-31T14:14:47;22.30;99.90
19898;DHT22;10111;50.814;4.572;2023-08-31T14:17:12;22.40;99.90
19898;DHT22;10111;50.814;4.572;2023-08-31T14:19:38;22.40;99.90
19898;DHT22;10111;50.814;4.572;2023-08-31T14:22:04;22.40;99.90
19898;DHT22;10111;50.814;4.572;2023-08-31T14:24:30;22.20;99.90
19898;DHT22;10111;50.814;4.572;2023-08-31T14:26:56;22.20;99.90
19898;DHT22;10111;50.814;4.572;2023-08-31T14:29:23;22.10;99.90
19898;DHT22;10111;50.814;4.572;2023-08-31T14:31:49;22.00;99.90
19898;DHT22;10111;50.814;4.572;2023-08-31T14:34:14;22.00;99.90
19898;DHT22;10111;50.814;4.572;2023-08-31T14:36:40;22.00;99.90
19898;DHT22;10111;50.814;4.572;2023-08-31T14:39:06;22.10;99.90
19898;DHT22;10111;50.814;4.572;2023-08-31T14:41:31;22.00;99.90
19898;DHT22;10111;50.814;4.572;2023-08-31T14:43:57;22.00;99.90
19898;DHT22;10111;50.814;4.572;2023-08-31T14:46:23;22.00;99.90
19898;DHT22;10111;50.814;4.572;2023-08-31T14:48:50;22.00;99.90
19898;DHT22;10111;50.814;4.572;2023-08-31T14:51:16;21.90;99.90
19898;DHT22;10111;50.814;4.572;2023-08-31T14:53:42;21.90;99.90
19898;DHT22;10111;50.814;4.572;2023-08-31T14:56:08;21.80;99.90
19898;DHT22;10111;50.814;4.572;2023-08-31T14:58:34;21.80;99.90
19898;DHT22;10111;50.814;4.572;2023-08-31T15:01:00;21.80;99.90
19898;DHT22;10111;50.814;4.572;2023-08-31T15:03:26;21.80;99.90
19898;DHT22;10111;50.814;4.572;2023-08-31T15:05:52;21.90;99.90
19898;DHT22;10111;50.814;4.572;2023-08-31T15:08:17;22.00;99.90
19898;DHT22;10111;50.814;4.572;2023-08-31T15:10:43;21.80;99.90
19898;DHT22;10111;50.814;4.572;2023-08-31T15:13:09;21.80;99.90
19898;DHT22;10111;50.814;4.572;2023-08-31T15:15:34;21.80;99.90
19898;DHT22;10111;50.814;4.572;2023-08-31T15:18:00;21.80;99.90
19898;DHT22;10111;50.814;4.572;2023-08-31T15:20:26;21.90;99.90
19898;DHT22;10111;50.814;4.572;2023-08-31T15:22:53;21.80;99.90
19898;DHT22;10111;50.814;4.572;2023-08-31T15:25:19;21.90;99.90
19898;DHT22;10111;50.814;4.572;2023-08-31T15:27:45;22.00;99.90
19898;DHT22;10111;50.814;4.572;2023-08-31T15:30:11;22.00;99.90
19898;DHT22;10111;50.814;4.572;2023-08-31T15:32:37;21.80;99.90
19898;DHT22;10111;50.814;4.572;2023-08-31T15:35:03;21.60;99.90
19898;DHT22;10111;50.814;4.572;2023-08-31T15:37:30;21.60;99.90
19898;DHT22;10111;50.814;4.572;2023-08-31T15:39:56;21.60;99.90
19898;DHT22;10111;50.814;4.572;2023-08-31T15:42:24;21.50;99.90
19898;DHT22;10111;50.814;4.572;2023-08-31T15:44:50;21.40;99.90
19898;DHT22;10111;50.814;4.572;2023-08-31T15:47:18;21.40;99.90
19898;DHT22;10111;50.814;4.572;2023-08-31T15:49:43;21.30;99.90